sensor_id;sensor_type;location;lat;lon;timestamp;P1;durP1;ratioP1;P2;durP2;ratioP2
11735;SDS011;5924;51.398;7.088;2023-04-25T00:00:45;12.80;;;5.97;;
11735;SDS011;5924;51.398;7.088;2023-04-25T00:03:11;13.30;;;6.07;;
11735;SDS011;5924;51.398;7.088;2023-04-25T00:05:37;15.43;;;6.10;;
11735;SDS011;5924;51.398;7.088;2023-04-25T00:08:04;11.10;;;6.00;;
11735;SDS011;5924;51.398;7.088;2023-04-25T00:10:30;21.27;;;6.23;;
11735;SDS011;5924;51.398;7.088;2023-04-25T00:12:56;16.83;;;6.87;;
11735;SDS011;5924;51.398;7.088;2023-04-25T00:15:22;14.90;;;6.10;;
11735;SDS011;5924;51.398;7.088;2023-04-25T00:17:49;7.23;;;5.37;;
11735;SDS011;5924;51.398;7.088;2023-04-25T00:20:14;12.53;;;5.60;;
11735;SDS011;5924;51.398;7.088;2023-04-25T00:22:40;24.50;;;6.20;;
11735;SDS011;5924;51.398;7.088;2023-04-25T00:25:06;15.57;;;6.37;;
11735;SDS011;5924;51.398;7.088;2023-04-25T00:27:32;21.93;;;5.90;;
11735;SDS011;5924;51.398;7.088;2023-04-25T00:29:58;14.80;;;5.27;;
11735;SDS011;5924;51.398;7.088;2023-04-25T00:32:23;11.30;;;5.50;;
11735;SDS011;5924;51.398;7.088;2023-04-25T00:34:50;7.20;;;5.07;;
11735;SDS011;5924;51.398;7.088;2023-04-25T00:37:15;23.13;;;5.90;;
11735;SDS011;5924;51.398;7.088;2023-04-25T00:39:41;13.23;;;5.10;;
11735;SDS011;5924;51.398;7.088;2023-04-25T00:42:06;8.43;;;5.00;;
11735;SDS011;5924;51.398;7.088;2023-04-25T00:44:33;12.90;;;5.20;;
11735;SDS011;5924;51.398;7.088;2023-04-25T00:47:01;12.40;;;5.20;;
11735;SDS011;5924;51.398;7.088;2023-04-25T00:49:27;12.70;;;4.37;;
11735;SDS011;5924;51.398;7.088;2023-04-25T00:51:53;10.23;;;5.70;;
11735;SDS011;5924;51.398;7.088;2023-04-25T00:54:18;9.50;;;4.90;;
11735;SDS011;5924;51.398;7.088;2023-04-25T00:56:44;10.77;;;4.53;;
11735;SDS011;5924;51.398;7.088;2023-04-25T00:59:10;10.27;;;5.07;;
11735;SDS011;5924;51.398;7.088;2023-04-25T01:01:36;12.63;;;5.03;;
11735;SDS011;5924;51.398;7.088;2023-04-25T01:04:04;9.50;;;4.60;;
11735;SDS011;5924;51.398;7.088;2023-04-25T01:06:29;23.20;;;6.33;;
11735;SDS011;5924;51.398;7.088;2023-04-25T01:08:56;9.20;;;5.53;;
11735;SDS011;5924;51.398;7.088;2023-04-25T01:11:23;10.38;;;5.07;;
11735;SDS011;5924;51.398;7.088;2023-04-25T01:13:49;13.03;;;5.03;;
11735;SDS011;5924;51.398;7.088;2023-04-25T01:16:15;15.83;;;5.60;;
11735;SDS011;5924;51.398;7.088;2023-04-25T01:18:41;8.67;;;5.50;;
11735;SDS011;5924;51.398;7.088;2023-04-25T01:21:11;18.20;;;6.53;;
11735;SDS011;5924;51.398;7.088;2023-04-25T01:23:38;9.67;;;5.53;;
11735;SDS011;5924;51.398;7.088;2023-04-25T01:26:06;13.60;;;5.70;;
11735;SDS011;5924;51.398;7.088;2023-04-25T01:28:33;14.20;;;6.13;;
11735;SDS011;5924;51.398;7.088;2023-04-25T01:31:00;12.20;;;7.03;;
11735;SDS011;5924;51.398;7.088;2023-04-25T01:33:26;9.00;;;7.10;;
11735;SDS011;5924;51.398;7.088;2023-04-25T01:35:52;14.20;;;7.17;;
11735;SDS011;5924;51.398;7.088;2023-04-25T01:38:17;12.67;;;6.77;;
11735;SDS011;5924;51.398;7.088;2023-04-25T01:40:43;12.10;;;7.20;;
11735;SDS011;5924;51.398;7.088;2023-04-25T01:43:11;14.47;;;6.63;;
11735;SDS011;5924;51.398;7.088;2023-04-25T01:45:37;12.47;;;6.73;;
11735;SDS011;5924;51.398;7.088;2023-04-25T01:48:06;12.90;;;6.73;;
11735;SDS011;5924;51.398;7.088;2023-04-25T01:50:32;15.03;;;6.30;;
11735;SDS011;5924;51.398;7.088;2023-04-25T01:52:58;18.20;;;6.50;;
11735;SDS011;5924;51.398;7.088;2023-04-25T01:55:25;11.82;;;5.70;;
11735;SDS011;5924;51.398;7.088;2023-04-25T01:57:51;19.63;;;6.15;;
11735;SDS011;5924;51.398;7.088;2023-04-25T02:00:16;12.37;;;5.37;;
11735;SDS011;5924;51.398;7.088;2023-04-25T02:02:42;11.27;;;6.30;;
11735;SDS011;5924;51.398;7.088;2023-04-25T02:05:08;8.90;;;5.10;;
11735;SDS011;5924;51.398;7.088;2023-04-25T02:07:34;16.30;;;6.80;;
11735;SDS011;5924;51.398;7.088;2023-04-25T02:09:59;12.23;;;5.87;;
11735;SDS011;5924;51.398;7.088;2023-04-25T02:12:25;11.40;;;5.80;;
11735;SDS011;5924;51.398;7.088;2023-04-25T02:14:52;11.87;;;5.50;;
11735;SDS011;5924;51.398;7.088;2023-04-25T02:17:18;9.80;;;6.17;;
11735;SDS011;5924;51.398;7.088;2023-04-25T02:19:43;18.93;;;7.50;;
11735;SDS011;5924;51.398;7.088;2023-04-25T02:22:09;14.87;;;6.70;;
11735;SDS011;5924;51.398;7.088;2023-04-25T02:24:35;9.40;;;5.47;;
11735;SDS011;5924;51.398;7.088;2023-04-25T02:27:01;19.27;;;6.60;;
11735;SDS011;5924;51.398;7.088;2023-04-25T02:29:27;16.17;;;6.30;;
11735;SDS011;5924;51.398;7.088;2023-04-25T02:31:54;10.70;;;5.97;;
11735;SDS011;5924;51.398;7.088;2023-04-25T02:34:20;18.83;;;6.82;;
11735;SDS011;5924;51.398;7.088;2023-04-25T02:36:45;16.80;;;6.87;;
11735;SDS011;5924;51.398;7.088;2023-04-25T02:39:13;11.87;;;5.90;;
11735;SDS011;5924;51.398;7.088;2023-04-25T02:41:39;9.47;;;6.20;;
11735;SDS011;5924;51.398;7.088;2023-04-25T02:44:04;12.13;;;5.97;;
11735;SDS011;5924;51.398;7.088;2023-04-25T02:46:30;15.53;;;6.90;;
11735;SDS011;5924;51.398;7.088;2023-04-25T02:48:56;12.83;;;6.90;;
11735;SDS011;5924;51.398;7.088;2023-04-25T02:51:21;9.10;;;6.10;;
11735;SDS011;5924;51.398;7.088;2023-04-25T02:53:47;15.90;;;7.70;;
11735;SDS011;5924;51.398;7.088;2023-04-25T02:56:13;11.97;;;7.60;;
11735;SDS011;5924;51.398;7.088;2023-04-25T02:58:38;9.90;;;6.03;;
11735;SDS011;5924;51.398;7.088;2023-04-25T03:01:04;10.00;;;6.87;;
11735;SDS011;5924;51.398;7.088;2023-04-25T03:03:30;11.57;;;7.13;;
11735;SDS011;5924;51.398;7.088;2023-04-25T03:05:56;16.70;;;7.10;;
11735;SDS011;5924;51.398;7.088;2023-04-25T03:08:21;15.23;;;6.80;;
11735;SDS011;5924;51.398;7.088;2023-04-25T03:10:47;15.40;;;9.10;;
11735;SDS011;5924;51.398;7.088;2023-04-25T03:13:15;22.38;;;8.63;;
11735;SDS011;5924;51.398;7.088;2023-04-25T03:15:40;21.83;;;8.90;;
11735;SDS011;5924;51.398;7.088;2023-04-25T03:18:06;17.53;;;9.53;;
11735;SDS011;5924;51.398;7.088;2023-04-25T03:20:32;15.70;;;8.20;;
11735;SDS011;5924;51.398;7.088;2023-04-25T03:22:57;20.43;;;8.53;;
11735;SDS011;5924;51.398;7.088;2023-04-25T03:25:23;24.87;;;9.87;;
11735;SDS011;5924;51.398;7.088;2023-04-25T03:27:48;23.17;;;9.40;;
11735;SDS011;5924;51.398;7.088;2023-04-25T03:30:14;29.53;;;9.37;;
11735;SDS011;5924;51.398;7.088;2023-04-25T03:32:40;24.80;;;10.80;;
11735;SDS011;5924;51.398;7.088;2023-04-25T03:35:06;20.70;;;10.43;;
11735;SDS011;5924;51.398;7.088;2023-04-25T03:37:31;18.57;;;10.50;;
11735;SDS011;5924;51.398;7.088;2023-04-25T03:39:57;22.93;;;10.00;;
11735;SDS011;5924;51.398;7.088;2023-04-25T03:42:23;19.33;;;9.23;;
11735;SDS011;5924;51.398;7.088;2023-04-25T03:44:49;15.37;;;9.10;;
11735;SDS011;5924;51.398;7.088;2023-04-25T03:47:15;24.60;;;9.90;;
11735;SDS011;5924;51.398;7.088;2023-04-25T03:49:40;16.70;;;11.10;;
11735;SDS011;5924;51.398;7.088;2023-04-25T03:52:06;25.10;;;11.20;;
11735;SDS011;5924;51.398;7.088;2023-04-25T03:54:32;24.97;;;11.80;;
11735;SDS011;5924;51.398;7.088;2023-04-25T03:56:58;23.70;;;11.87;;
11735;SDS011;5924;51.398;7.088;2023-04-25T03:59:23;24.87;;;11.53;;
11735;SDS011;5924;51.398;7.088;2023-04-25T04:01:50;24.60;;;11.60;;
11735;SDS011;5924;51.398;7.088;2023-04-25T04:04:17;29.70;;;12.10;;
11735;SDS011;5924;51.398;7.088;2023-04-25T04:06:43;21.43;;;11.50;;
11735;SDS011;5924;51.398;7.088;2023-04-25T04:09:09;29.17;;;13.55;;
11735;SDS011;5924;51.398;7.088;2023-04-25T04:11:36;30.17;;;11.90;;
11735;SDS011;5924;51.398;7.088;2023-04-25T04:14:04;37.70;;;13.33;;
11735;SDS011;5924;51.398;7.088;2023-04-25T04:16:30;28.97;;;12.13;;
11735;SDS011;5924;51.398;7.088;2023-04-25T04:18:56;30.77;;;12.67;;
11735;SDS011;5924;51.398;7.088;2023-04-25T04:21:21;34.37;;;11.03;;
11735;SDS011;5924;51.398;7.088;2023-04-25T04:23:47;25.70;;;12.97;;
11735;SDS011;5924;51.398;7.088;2023-04-25T04:26:13;55.00;;;12.07;;
11735;SDS011;5924;51.398;7.088;2023-04-25T04:28:41;36.70;;;11.00;;
11735;SDS011;5924;51.398;7.088;2023-04-25T04:31:08;23.30;;;11.13;;
11735;SDS011;5924;51.398;7.088;2023-04-25T04:33:35;22.10;;;10.70;;
11735;SDS011;5924;51.398;7.088;2023-04-25T04:36:01;29.93;;;9.67;;
11735;SDS011;5924;51.398;7.088;2023-04-25T04:38:28;18.73;;;9.03;;
11735;SDS011;5924;51.398;7.088;2023-04-25T04:40:54;25.30;;;11.43;;
11735;SDS011;5924;51.398;7.088;2023-04-25T04:43:19;19.40;;;10.83;;
11735;SDS011;5924;51.398;7.088;2023-04-25T04:45:45;32.53;;;10.93;;
11735;SDS011;5924;51.398;7.088;2023-04-25T04:48:11;19.97;;;10.73;;
11735;SDS011;5924;51.398;7.088;2023-04-25T04:50:39;31.67;;;11.77;;
11735;SDS011;5924;51.398;7.088;2023-04-25T04:53:05;29.00;;;11.17;;
11735;SDS011;5924;51.398;7.088;2023-04-25T04:55:31;23.47;;;11.00;;
11735;SDS011;5924;51.398;7.088;2023-04-25T04:57:56;24.67;;;11.30;;
11735;SDS011;5924;51.398;7.088;2023-04-25T05:00:22;22.00;;;10.97;;
11735;SDS011;5924;51.398;7.088;2023-04-25T05:02:47;31.37;;;11.33;;
11735;SDS011;5924;51.398;7.088;2023-04-25T05:05:13;17.70;;;8.73;;
11735;SDS011;5924;51.398;7.088;2023-04-25T05:07:39;27.30;;;9.30;;
11735;SDS011;5924;51.398;7.088;2023-04-25T05:10:04;26.23;;;10.00;;
11735;SDS011;5924;51.398;7.088;2023-04-25T05:12:31;18.25;;;8.38;;
11735;SDS011;5924;51.398;7.088;2023-04-25T05:14:56;21.07;;;7.80;;
11735;SDS011;5924;51.398;7.088;2023-04-25T05:17:22;27.07;;;8.10;;
11735;SDS011;5924;51.398;7.088;2023-04-25T05:19:47;19.40;;;8.23;;
11735;SDS011;5924;51.398;7.088;2023-04-25T05:22:13;34.57;;;9.70;;
11735;SDS011;5924;51.398;7.088;2023-04-25T05:24:39;36.60;;;8.30;;
11735;SDS011;5924;51.398;7.088;2023-04-25T05:27:05;18.57;;;7.60;;
11735;SDS011;5924;51.398;7.088;2023-04-25T05:29:30;20.10;;;7.60;;
11735;SDS011;5924;51.398;7.088;2023-04-25T05:31:56;24.93;;;8.17;;
11735;SDS011;5924;51.398;7.088;2023-04-25T05:34:23;32.40;;;7.73;;
11735;SDS011;5924;51.398;7.088;2023-04-25T05:36:49;22.25;;;6.90;;
11735;SDS011;5924;51.398;7.088;2023-04-25T05:39:15;28.03;;;7.87;;
11735;SDS011;5924;51.398;7.088;2023-04-25T05:41:44;19.30;;;6.50;;
11735;SDS011;5924;51.398;7.088;2023-04-25T05:44:09;28.17;;;6.50;;
11735;SDS011;5924;51.398;7.088;2023-04-25T05:46:35;16.67;;;6.23;;
11735;SDS011;5924;51.398;7.088;2023-04-25T05:49:01;26.40;;;6.00;;
11735;SDS011;5924;51.398;7.088;2023-04-25T05:51:27;13.70;;;6.07;;
11735;SDS011;5924;51.398;7.088;2023-04-25T05:53:52;23.50;;;6.87;;
11735;SDS011;5924;51.398;7.088;2023-04-25T05:56:18;17.50;;;6.10;;
11735;SDS011;5924;51.398;7.088;2023-04-25T05:58:44;29.43;;;6.33;;
11735;SDS011;5924;51.398;7.088;2023-04-25T06:01:09;24.27;;;6.73;;
11735;SDS011;5924;51.398;7.088;2023-04-25T06:03:35;22.83;;;5.97;;
11735;SDS011;5924;51.398;7.088;2023-04-25T06:06:02;13.97;;;6.00;;
11735;SDS011;5924;51.398;7.088;2023-04-25T06:08:28;29.27;;;7.93;;
11735;SDS011;5924;51.398;7.088;2023-04-25T06:10:54;12.57;;;6.67;;
11735;SDS011;5924;51.398;7.088;2023-04-25T06:13:20;22.87;;;6.80;;
11735;SDS011;5924;51.398;7.088;2023-04-25T06:15:46;18.87;;;6.87;;
11735;SDS011;5924;51.398;7.088;2023-04-25T06:18:12;19.60;;;6.73;;
11735;SDS011;5924;51.398;7.088;2023-04-25T06:20:37;12.20;;;5.57;;
11735;SDS011;5924;51.398;7.088;2023-04-25T06:23:03;25.33;;;7.33;;
11735;SDS011;5924;51.398;7.088;2023-04-25T06:25:28;21.30;;;6.70;;
11735;SDS011;5924;51.398;7.088;2023-04-25T06:27:54;11.93;;;5.87;;
11735;SDS011;5924;51.398;7.088;2023-04-25T06:30:20;21.77;;;6.03;;
11735;SDS011;5924;51.398;7.088;2023-04-25T06:32:49;13.30;;;5.40;;
11735;SDS011;5924;51.398;7.088;2023-04-25T06:35:15;22.63;;;5.43;;
11735;SDS011;5924;51.398;7.088;2023-04-25T06:37:41;16.43;;;6.03;;
11735;SDS011;5924;51.398;7.088;2023-04-25T06:40:06;19.80;;;5.23;;
11735;SDS011;5924;51.398;7.088;2023-04-25T06:42:33;30.83;;;5.93;;
11735;SDS011;5924;51.398;7.088;2023-04-25T06:44:58;25.40;;;6.70;;
11735;SDS011;5924;51.398;7.088;2023-04-25T06:47:24;16.23;;;6.00;;
11735;SDS011;5924;51.398;7.088;2023-04-25T06:49:50;19.30;;;5.93;;
11735;SDS011;5924;51.398;7.088;2023-04-25T06:52:15;22.50;;;6.60;;
11735;SDS011;5924;51.398;7.088;2023-04-25T06:54:42;8.10;;;5.30;;
11735;SDS011;5924;51.398;7.088;2023-04-25T06:57:08;10.17;;;5.80;;
11735;SDS011;5924;51.398;7.088;2023-04-25T06:59:34;18.57;;;7.13;;
11735;SDS011;5924;51.398;7.088;2023-04-25T07:01:59;15.47;;;5.10;;
11735;SDS011;5924;51.398;7.088;2023-04-25T07:04:25;14.37;;;5.20;;
11735;SDS011;5924;51.398;7.088;2023-04-25T07:06:51;25.57;;;6.13;;
11735;SDS011;5924;51.398;7.088;2023-04-25T07:09:16;16.37;;;4.27;;
11735;SDS011;5924;51.398;7.088;2023-04-25T07:11:42;27.37;;;5.57;;
11735;SDS011;5924;51.398;7.088;2023-04-25T07:14:08;14.10;;;4.03;;
11735;SDS011;5924;51.398;7.088;2023-04-25T07:16:33;5.40;;;3.30;;
11735;SDS011;5924;51.398;7.088;2023-04-25T07:18:59;8.63;;;3.53;;
11735;SDS011;5924;51.398;7.088;2023-04-25T07:21:25;5.00;;;2.90;;
11735;SDS011;5924;51.398;7.088;2023-04-25T07:23:51;4.57;;;2.60;;
11735;SDS011;5924;51.398;7.088;2023-04-25T07:26:17;7.10;;;2.90;;
11735;SDS011;5924;51.398;7.088;2023-04-25T07:28:42;5.80;;;2.47;;
11735;SDS011;5924;51.398;7.088;2023-04-25T07:31:08;13.03;;;2.47;;
11735;SDS011;5924;51.398;7.088;2023-04-25T07:33:34;6.20;;;2.50;;
11735;SDS011;5924;51.398;7.088;2023-04-25T07:35:59;7.70;;;3.20;;
11735;SDS011;5924;51.398;7.088;2023-04-25T07:38:25;8.60;;;3.30;;
11735;SDS011;5924;51.398;7.088;2023-04-25T07:40:51;10.70;;;2.50;;
11735;SDS011;5924;51.398;7.088;2023-04-25T07:43:17;11.00;;;3.43;;
11735;SDS011;5924;51.398;7.088;2023-04-25T07:45:43;9.70;;;3.50;;
11735;SDS011;5924;51.398;7.088;2023-04-25T07:48:09;11.27;;;4.07;;
11735;SDS011;5924;51.398;7.088;2023-04-25T07:50:35;11.33;;;2.90;;
11735;SDS011;5924;51.398;7.088;2023-04-25T07:53:01;11.20;;;3.80;;
11735;SDS011;5924;51.398;7.088;2023-04-25T07:55:27;11.60;;;2.50;;
11735;SDS011;5924;51.398;7.088;2023-04-25T07:57:53;14.67;;;2.60;;
11735;SDS011;5924;51.398;7.088;2023-04-25T08:00:18;9.23;;;3.27;;
11735;SDS011;5924;51.398;7.088;2023-04-25T08:02:44;10.07;;;3.13;;
11735;SDS011;5924;51.398;7.088;2023-04-25T08:05:10;14.77;;;2.33;;
11735;SDS011;5924;51.398;7.088;2023-04-25T08:07:39;12.50;;;2.93;;
11735;SDS011;5924;51.398;7.088;2023-04-25T08:10:05;16.15;;;3.55;;
11735;SDS011;5924;51.398;7.088;2023-04-25T08:12:32;4.23;;;2.90;;
11735;SDS011;5924;51.398;7.088;2023-04-25T08:14:58;10.87;;;2.90;;
11735;SDS011;5924;51.398;7.088;2023-04-25T08:17:23;16.20;;;2.77;;
11735;SDS011;5924;51.398;7.088;2023-04-25T08:19:49;9.80;;;2.70;;
11735;SDS011;5924;51.398;7.088;2023-04-25T08:22:15;6.37;;;2.17;;
11735;SDS011;5924;51.398;7.088;2023-04-25T08:24:41;8.20;;;2.30;;
11735;SDS011;5924;51.398;7.088;2023-04-25T08:27:07;9.97;;;2.07;;
11735;SDS011;5924;51.398;7.088;2023-04-25T08:29:33;8.23;;;2.30;;
11735;SDS011;5924;51.398;7.088;2023-04-25T08:31:59;10.60;;;2.47;;
11735;SDS011;5924;51.398;7.088;2023-04-25T08:34:25;8.32;;;2.40;;
11735;SDS011;5924;51.398;7.088;2023-04-25T08:36:51;11.20;;;2.50;;
11735;SDS011;5924;51.398;7.088;2023-04-25T08:39:17;9.53;;;2.00;;
11735;SDS011;5924;51.398;7.088;2023-04-25T08:41:43;7.27;;;2.20;;
11735;SDS011;5924;51.398;7.088;2023-04-25T08:44:09;8.43;;;2.40;;
11735;SDS011;5924;51.398;7.088;2023-04-25T08:46:37;3.97;;;2.13;;
11735;SDS011;5924;51.398;7.088;2023-04-25T08:49:07;4.20;;;2.10;;
11735;SDS011;5924;51.398;7.088;2023-04-25T08:51:39;2.83;;;1.87;;
11735;SDS011;5924;51.398;7.088;2023-04-25T08:54:11;9.80;;;2.13;;
11735;SDS011;5924;51.398;7.088;2023-04-25T08:56:39;11.90;;;2.80;;
11735;SDS011;5924;51.398;7.088;2023-04-25T08:59:08;6.83;;;1.90;;
11735;SDS011;5924;51.398;7.088;2023-04-25T09:01:35;3.03;;;2.37;;
11735;SDS011;5924;51.398;7.088;2023-04-25T09:04:01;8.13;;;2.13;;
11735;SDS011;5924;51.398;7.088;2023-04-25T09:06:28;18.43;;;3.27;;
11735;SDS011;5924;51.398;7.088;2023-04-25T09:08:59;7.40;;;2.40;;
11735;SDS011;5924;51.398;7.088;2023-04-25T09:11:31;11.68;;;2.63;;
11735;SDS011;5924;51.398;7.088;2023-04-25T09:14:13;7.43;;;2.70;;
11735;SDS011;5924;51.398;7.088;2023-04-25T09:21:53;4.73;;;2.00;;
11735;SDS011;5924;51.398;7.088;2023-04-25T09:24:37;14.00;;;2.27;;
11735;SDS011;5924;51.398;7.088;2023-04-25T09:27:03;4.50;;;2.23;;
11735;SDS011;5924;51.398;7.088;2023-04-25T09:29:34;15.03;;;3.23;;
11735;SDS011;5924;51.398;7.088;2023-04-25T09:32:14;7.03;;;2.00;;
11735;SDS011;5924;51.398;7.088;2023-04-25T09:34:50;9.63;;;2.37;;
11735;SDS011;5924;51.398;7.088;2023-04-25T09:37:21;13.73;;;3.00;;
11735;SDS011;5924;51.398;7.088;2023-04-25T09:39:47;7.60;;;2.17;;
11735;SDS011;5924;51.398;7.088;2023-04-25T09:42:15;6.90;;;2.30;;
11735;SDS011;5924;51.398;7.088;2023-04-25T09:44:42;4.00;;;2.03;;
11735;SDS011;5924;51.398;7.088;2023-04-25T09:47:09;7.23;;;1.70;;
11735;SDS011;5924;51.398;7.088;2023-04-25T09:49:38;9.27;;;2.27;;
11735;SDS011;5924;51.398;7.088;2023-04-25T09:52:06;5.70;;;2.40;;
11735;SDS011;5924;51.398;7.088;2023-04-25T09:54:31;10.80;;;1.60;;
11735;SDS011;5924;51.398;7.088;2023-04-25T09:56:57;4.33;;;2.00;;
11735;SDS011;5924;51.398;7.088;2023-04-25T09:59:28;5.40;;;1.53;;
11735;SDS011;5924;51.398;7.088;2023-04-25T10:01:59;6.07;;;2.07;;
11735;SDS011;5924;51.398;7.088;2023-04-25T10:04:25;7.23;;;2.00;;
11735;SDS011;5924;51.398;7.088;2023-04-25T10:06:53;6.83;;;1.80;;
11735;SDS011;5924;51.398;7.088;2023-04-25T10:09:21;10.53;;;1.87;;
11735;SDS011;5924;51.398;7.088;2023-04-25T10:11:50;4.75;;;1.55;;
11735;SDS011;5924;51.398;7.088;2023-04-25T10:14:17;7.87;;;2.27;;
11735;SDS011;5924;51.398;7.088;2023-04-25T10:16:44;4.30;;;2.27;;
11735;SDS011;5924;51.398;7.088;2023-04-25T10:19:10;3.90;;;1.30;;
11735;SDS011;5924;51.398;7.088;2023-04-25T10:21:40;2.63;;;1.47;;
11735;SDS011;5924;51.398;7.088;2023-04-25T10:24:13;5.87;;;1.53;;
11735;SDS011;5924;51.398;7.088;2023-04-25T10:26:40;5.60;;;1.70;;
11735;SDS011;5924;51.398;7.088;2023-04-25T10:29:06;5.90;;;1.77;;
11735;SDS011;5924;51.398;7.088;2023-04-25T10:31:31;1.30;;;1.30;;
11735;SDS011;5924;51.398;7.088;2023-04-25T10:33:59;3.07;;;1.53;;
11735;SDS011;5924;51.398;7.088;2023-04-25T10:36:25;5.00;;;1.40;;
11735;SDS011;5924;51.398;7.088;2023-04-25T10:38:56;2.77;;;1.60;;
11735;SDS011;5924;51.398;7.088;2023-04-25T10:41:27;3.03;;;1.47;;
11735;SDS011;5924;51.398;7.088;2023-04-25T10:44:00;3.33;;;2.10;;
11735;SDS011;5924;51.398;7.088;2023-04-25T10:46:27;2.90;;;1.40;;
11735;SDS011;5924;51.398;7.088;2023-04-25T10:48:58;4.97;;;1.93;;
11735;SDS011;5924;51.398;7.088;2023-04-25T10:51:29;1.40;;;1.20;;
11735;SDS011;5924;51.398;7.088;2023-04-25T10:54:01;4.93;;;1.67;;
11735;SDS011;5924;51.398;7.088;2023-04-25T10:59:06;3.87;;;1.80;;
11735;SDS011;5924;51.398;7.088;2023-04-25T11:01:39;3.90;;;1.83;;
11735;SDS011;5924;51.398;7.088;2023-04-25T11:04:18;6.57;;;1.93;;
11735;SDS011;5924;51.398;7.088;2023-04-25T11:06:55;6.70;;;1.40;;
11735;SDS011;5924;51.398;7.088;2023-04-25T11:09:28;5.28;;;2.20;;
11735;SDS011;5924;51.398;7.088;2023-04-25T11:11:55;3.33;;;1.30;;
11735;SDS011;5924;51.398;7.088;2023-04-25T11:14:22;9.43;;;1.40;;
11735;SDS011;5924;51.398;7.088;2023-04-25T11:16:52;8.87;;;2.00;;
11735;SDS011;5924;51.398;7.088;2023-04-25T11:19:22;6.60;;;2.20;;
11735;SDS011;5924;51.398;7.088;2023-04-25T11:21:48;3.10;;;1.77;;
11735;SDS011;5924;51.398;7.088;2023-04-25T11:24:14;2.60;;;1.60;;
11735;SDS011;5924;51.398;7.088;2023-04-25T11:26:41;4.55;;;1.48;;
11735;SDS011;5924;51.398;7.088;2023-04-25T11:29:08;5.97;;;1.73;;
11735;SDS011;5924;51.398;7.088;2023-04-25T11:31:33;2.50;;;1.80;;
11735;SDS011;5924;51.398;7.088;2023-04-25T11:33:59;6.40;;;2.20;;
11735;SDS011;5924;51.398;7.088;2023-04-25T11:36:25;7.80;;;2.00;;
11735;SDS011;5924;51.398;7.088;2023-04-25T11:39:12;6.30;;;1.70;;
11735;SDS011;5924;51.398;7.088;2023-04-25T11:41:38;5.80;;;2.13;;
11735;SDS011;5924;51.398;7.088;2023-04-25T11:44:07;5.40;;;1.87;;
11735;SDS011;5924;51.398;7.088;2023-04-25T11:46:49;5.30;;;1.37;;
11735;SDS011;5924;51.398;7.088;2023-04-25T11:49:15;2.60;;;1.77;;
11735;SDS011;5924;51.398;7.088;2023-04-25T11:52:02;4.43;;;1.43;;
11735;SDS011;5924;51.398;7.088;2023-04-25T11:54:34;6.50;;;1.70;;
11735;SDS011;5924;51.398;7.088;2023-04-25T11:57:00;7.83;;;2.10;;
11735;SDS011;5924;51.398;7.088;2023-04-25T11:59:26;3.83;;;1.40;;
11735;SDS011;5924;51.398;7.088;2023-04-25T12:01:52;3.23;;;1.73;;
11735;SDS011;5924;51.398;7.088;2023-04-25T12:04:22;3.97;;;1.80;;
11735;SDS011;5924;51.398;7.088;2023-04-25T12:06:50;4.32;;;1.60;;
11735;SDS011;5924;51.398;7.088;2023-04-25T12:09:18;3.60;;;1.70;;
11735;SDS011;5924;51.398;7.088;2023-04-25T12:11:56;8.43;;;2.20;;
11735;SDS011;5924;51.398;7.088;2023-04-25T12:14:27;5.23;;;1.87;;
11735;SDS011;5924;51.398;7.088;2023-04-25T12:16:58;4.97;;;1.90;;
11735;SDS011;5924;51.398;7.088;2023-04-25T12:19:25;5.77;;;1.77;;
11735;SDS011;5924;51.398;7.088;2023-04-25T12:21:51;8.90;;;1.63;;
11735;SDS011;5924;51.398;7.088;2023-04-25T12:26:52;2.73;;;2.53;;
11735;SDS011;5924;51.398;7.088;2023-04-25T12:29:27;4.50;;;1.50;;
11735;SDS011;5924;51.398;7.088;2023-04-25T12:31:54;5.83;;;1.90;;
11735;SDS011;5924;51.398;7.088;2023-04-25T12:34:21;7.40;;;2.17;;
11735;SDS011;5924;51.398;7.088;2023-04-25T12:36:47;7.13;;;3.33;;
11735;SDS011;5924;51.398;7.088;2023-04-25T12:39:14;4.72;;;1.63;;
11735;SDS011;5924;51.398;7.088;2023-04-25T12:41:44;4.40;;;2.50;;
11735;SDS011;5924;51.398;7.088;2023-04-25T12:44:11;5.27;;;1.60;;
11735;SDS011;5924;51.398;7.088;2023-04-25T12:46:37;4.57;;;1.40;;
11735;SDS011;5924;51.398;7.088;2023-04-25T12:49:03;1.75;;;1.65;;
11735;SDS011;5924;51.398;7.088;2023-04-25T12:51:29;1.57;;;1.50;;
11735;SDS011;5924;51.398;7.088;2023-04-25T12:53:57;1.40;;;1.33;;
11735;SDS011;5924;51.398;7.088;2023-04-25T12:56:24;4.30;;;1.50;;
11735;SDS011;5924;51.398;7.088;2023-04-25T12:58:50;3.75;;;1.45;;
11735;SDS011;5924;51.398;7.088;2023-04-25T13:01:17;4.40;;;1.73;;
11735;SDS011;5924;51.398;7.088;2023-04-25T13:03:42;1.23;;;1.23;;
11735;SDS011;5924;51.398;7.088;2023-04-25T13:06:08;1.20;;;1.20;;
11735;SDS011;5924;51.398;7.088;2023-04-25T13:08:34;2.23;;;1.77;;
11735;SDS011;5924;51.398;7.088;2023-04-25T13:11:01;2.78;;;1.40;;
11735;SDS011;5924;51.398;7.088;2023-04-25T13:13:28;1.67;;;1.40;;
11735;SDS011;5924;51.398;7.088;2023-04-25T13:15:54;1.70;;;1.60;;
11735;SDS011;5924;51.398;7.088;2023-04-25T13:18:20;1.63;;;1.50;;
11735;SDS011;5924;51.398;7.088;2023-04-25T13:20:46;1.50;;;1.40;;
11735;SDS011;5924;51.398;7.088;2023-04-25T13:23:11;4.10;;;1.60;;
11735;SDS011;5924;51.398;7.088;2023-04-25T13:25:37;1.47;;;1.30;;
11735;SDS011;5924;51.398;7.088;2023-04-25T13:28:03;3.20;;;1.67;;
11735;SDS011;5924;51.398;7.088;2023-04-25T13:30:29;2.40;;;1.50;;
11735;SDS011;5924;51.398;7.088;2023-04-25T13:32:54;2.93;;;1.27;;
11735;SDS011;5924;51.398;7.088;2023-04-25T13:35:22;2.17;;;1.37;;
11735;SDS011;5924;51.398;7.088;2023-04-25T13:37:47;2.30;;;1.33;;
11735;SDS011;5924;51.398;7.088;2023-04-25T13:40:13;2.73;;;1.40;;
11735;SDS011;5924;51.398;7.088;2023-04-25T13:42:39;3.23;;;1.70;;
11735;SDS011;5924;51.398;7.088;2023-04-25T13:45:05;6.40;;;1.33;;
11735;SDS011;5924;51.398;7.088;2023-04-25T13:47:31;3.13;;;1.73;;
11735;SDS011;5924;51.398;7.088;2023-04-25T13:49:57;4.93;;;1.50;;
11735;SDS011;5924;51.398;7.088;2023-04-25T13:52:23;2.50;;;2.13;;
11735;SDS011;5924;51.398;7.088;2023-04-25T13:54:49;2.73;;;1.50;;
11735;SDS011;5924;51.398;7.088;2023-04-25T13:57:15;1.40;;;1.30;;
11735;SDS011;5924;51.398;7.088;2023-04-25T13:59:42;3.13;;;1.40;;
11735;SDS011;5924;51.398;7.088;2023-04-25T14:02:08;2.40;;;1.13;;
11735;SDS011;5924;51.398;7.088;2023-04-25T14:04:33;5.83;;;1.60;;
11735;SDS011;5924;51.398;7.088;2023-04-25T14:06:59;2.10;;;1.10;;
11735;SDS011;5924;51.398;7.088;2023-04-25T14:09:27;5.53;;;1.87;;
11735;SDS011;5924;51.398;7.088;2023-04-25T14:11:53;2.03;;;1.40;;
11735;SDS011;5924;51.398;7.088;2023-04-25T14:14:19;2.27;;;1.20;;
11735;SDS011;5924;51.398;7.088;2023-04-25T14:16:45;6.77;;;1.40;;
11735;SDS011;5924;51.398;7.088;2023-04-25T14:19:13;5.03;;;1.30;;
11735;SDS011;5924;51.398;7.088;2023-04-25T14:21:39;3.93;;;1.50;;
11735;SDS011;5924;51.398;7.088;2023-04-25T14:24:05;4.22;;;1.30;;
11735;SDS011;5924;51.398;7.088;2023-04-25T14:26:33;1.27;;;1.08;;
11735;SDS011;5924;51.398;7.088;2023-04-25T14:29:01;2.50;;;1.33;;
11735;SDS011;5924;51.398;7.088;2023-04-25T14:31:26;1.07;;;1.07;;
11735;SDS011;5924;51.398;7.088;2023-04-25T14:33:53;0.95;;;0.95;;
11735;SDS011;5924;51.398;7.088;2023-04-25T14:36:18;2.10;;;1.00;;
11735;SDS011;5924;51.398;7.088;2023-04-25T14:38:44;3.25;;;1.30;;
11735;SDS011;5924;51.398;7.088;2023-04-25T14:41:10;1.87;;;1.10;;
11735;SDS011;5924;51.398;7.088;2023-04-25T14:43:36;3.17;;;1.27;;
11735;SDS011;5924;51.398;7.088;2023-04-25T14:46:02;1.03;;;1.03;;
11735;SDS011;5924;51.398;7.088;2023-04-25T14:48:28;4.87;;;1.37;;
11735;SDS011;5924;51.398;7.088;2023-04-25T14:50:54;1.10;;;1.00;;
11735;SDS011;5924;51.398;7.088;2023-04-25T14:53:21;1.40;;;1.23;;
11735;SDS011;5924;51.398;7.088;2023-04-25T14:55:47;1.07;;;1.07;;
11735;SDS011;5924;51.398;7.088;2023-04-25T14:58:15;2.67;;;1.00;;
11735;SDS011;5924;51.398;7.088;2023-04-25T15:00:43;0.87;;;0.83;;